EHGG/GRQ METAR and TAF weather

Enter ICAO airport designator
Station Type Date Time Source
EHGG METAR 2020/01/19 17:25 UTC NOAA

EHGG 191725Z AUTO 28004KT 9999 BKN020 BKN025 BKN028 05/03 Q1042 NOSIG


Station Type Date Time Source
EHGG Decoded METAR 2020/01/19 17:25 UTC NOAA

Groningen Airport Eelde, Netherlands (EHGG) 53-08N 006-35E 4M
Jan 19, 2020 - 12:25 PM EST / 2020.01.19 1725 UTC
Wind: from the W (280 degrees) at 5 MPH (4 KT):0
Visibility: greater than 7 mile(s):0
Sky conditions: mostly cloudy
Temperature: 41 F (5 C)
Dew Point: 37 F (3 C)
Relative Humidity: 86%
Pressure (altimeter): 30.77 in. Hg (1042 hPa)
ob: EHGG 191725Z AUTO 28004KT 9999 BKN020 BKN025 BKN028 05/03 Q1042 NOSIG
cycle: 17

Station Type Date Time Source
EHGG TAF 2020/01/19 18:27 UTC NOAA

TAF EHGG 191712Z 1918/2024 30005KT 9999 SCT030
BECMG 1920/1923 5000 BR MIFG
BECMG 1923/2002 2000 BCFG PROB40 2002/2010 0400 FG FZFG VV001
BECMG 2010/2013 8000 NSW
BECMG 2017/2020 5000 BR MIFG
BECMG 2022/2024 2000 BKN002

Example: see airport list